Time;durP1;ratioP1;P1;durP2;ratioP2;P2;SDS_P1;SDS_P2;PMS_P1;PMS_P2;Temp;Humidity;BMP_temperature;BMP_pressure;BME280_temperature;BME280_humidity;BME280_pressure;Samples;Min_cycle;Max_cycle;Signal;HPM_P1;HPM_P2
2022/10/15 00:01:28;;;;;;;12.23;9.90;;;23.30;49.80;;;;;;4971914;28;20117;-60
2022/10/15 00:03:55;;;;;;;13.65;10.20;;;23.30;49.80;;;;;;4972205;28;20058;-60
2022/10/15 00:06:22;;;;;;;13.15;9.77;;;23.30;49.80;;;;;;4972749;28;20046;-60
2022/10/15 00:08:49;;;;;;;13.30;9.80;;;23.30;49.80;;;;;;4972022;28;20054;-60
2022/10/15 00:11:19;;;;;;;12.18;9.38;;;23.30;49.70;;;;;;4972414;28;20057;-60
2022/10/15 00:13:47;;;;;;;11.60;8.98;;;23.30;49.80;;;;;;4970514;28;20495;-61
2022/10/15 00:16:17;;;;;;;13.52;10.57;;;23.30;49.80;;;;;;4973020;28;20053;-61
2022/10/15 00:18:45;;;;;;;14.20;10.73;;;23.30;49.80;;;;;;4972413;28;20055;-60
2022/10/15 00:21:15;;;;;;;13.18;10.07;;;23.30;49.80;;;;;;4969646;28;20058;-60
2022/10/15 00:23:42;;;;;;;11.45;9.43;;;23.30;49.90;;;;;;4972131;28;20254;-61
2022/10/15 00:26:13;;;;;;;12.23;9.68;;;23.20;49.80;;;;;;4971113;28;20533;-60
2022/10/15 00:28:40;;;;;;;;;;;23.20;49.80;;;;;;4973075;28;20054;-61
2022/10/15 00:31:10;;;;;;;12.63;9.85;;;23.20;49.80;;;;;;4971072;28;20366;-60
2022/10/15 00:33:38;;;;;;;11.68;9.35;;;23.20;49.80;;;;;;4971934;28;20077;-61
2022/10/15 00:36:11;;;;;;;12.18;9.50;;;23.30;49.70;;;;;;4971493;28;20086;-60
2022/10/15 00:38:38;;;;;;;11.32;9.57;;;23.20;49.70;;;;;;4971378;28;20054;-60
2022/10/15 00:41:07;;;;;;;12.52;9.82;;;23.20;49.60;;;;;;4972909;28;20054;-60
2022/10/15 00:43:43;;;;;;;12.60;9.93;;;23.30;49.70;;;;;;4972534;28;20054;-61
2022/10/15 00:46:28;;;;;;;11.52;9.45;;;23.20;49.60;;;;;;4972066;28;20054;-60
2022/10/15 00:49:00;;;;;;;11.43;9.52;;;23.20;49.60;;;;;;4971934;28;20059;-60
2022/10/15 00:51:34;;;;;;;11.77;9.10;;;23.30;49.70;;;;;;4971416;28;20050;-61
2022/10/15 00:54:01;;;;;;;10.88;9.05;;;23.20;49.60;;;;;;4967329;28;20050;-60
2022/10/15 00:56:31;;;;;;;14.35;10.25;;;23.20;49.60;;;;;;4971384;28;20051;-60
2022/10/15 00:58:59;;;;;;;12.60;9.68;;;23.20;49.60;;;;;;4971629;28;20051;-60
2022/10/15 01:01:27;;;;;;;12.50;9.85;;;23.20;49.60;;;;;;4970938;28;20428;-61
2022/10/15 01:03:55;;;;;;;12.82;9.68;;;23.20;49.60;;;;;;4970563;28;20052;-61
2022/10/15 01:06:23;;;;;;;13.85;9.90;;;23.20;49.60;;;;;;4971198;28;20474;-61
2022/10/15 01:08:51;;;;;;;12.27;9.73;;;23.20;49.60;;;;;;4971591;28;20054;-61
2022/10/15 01:11:45;;;;;;;11.80;9.18;;;23.20;49.60;;;;;;4971809;28;20495;-60
2022/10/15 01:14:31;;;;;;;12.75;9.60;;;23.20;49.70;;;;;;4971374;28;20057;-60
2022/10/15 01:17:30;;;;;;;11.23;9.25;;;23.20;49.60;;;;;;4972630;28;20076;-60
2022/10/15 01:20:37;;;;;;;12.20;9.82;;;23.20;49.70;;;;;;4970912;28;20047;-60
2022/10/15 01:23:43;;;;;;;11.82;9.35;;;23.10;49.60;;;;;;4971242;28;20176;-60
2022/10/15 01:26:49;;;;;;;11.63;9.45;;;23.10;49.70;;;;;;4968721;28;20050;-60
2022/10/15 01:29:51;;;;;;;11.65;8.85;;;23.20;49.70;;;;;;4970881;28;20043;-60
2022/10/15 01:32:38;;;;;;;9.82;8.15;;;23.10;49.70;;;;;;4971371;28;20121;-60
2022/10/15 01:35:25;;;;;;;12.65;8.90;;;23.20;49.70;;;;;;4970598;28;20070;-60
2022/10/15 01:38:04;;;;;;;11.18;8.93;;;23.10;49.60;;;;;;4968881;28;20059;-60
2022/10/15 01:40:57;;;;;;;10.40;8.60;;;23.20;49.60;;;;;;4970548;28;20069;-61
2022/10/15 01:43:46;;;;;;;10.38;7.93;;;23.20;49.70;;;;;;4968819;28;20055;-60
2022/10/15 01:46:23;;;;;;;11.05;8.60;;;23.20;49.70;;;;;;4951452;28;20528;-60
2022/10/15 01:48:53;;;;;;;14.27;8.50;;;23.20;49.70;;;;;;4951446;28;20073;-61
2022/10/15 01:51:23;;;;;;;8.77;7.85;;;23.10;49.70;;;;;;4951607;28;20408;-61
2022/10/15 01:53:51;;;;;;;10.90;8.85;;;23.10;49.70;;;;;;4951097;28;20067;-61
2022/10/15 01:56:20;;;;;;;10.07;8.73;;;23.10;49.70;;;;;;4951728;28;20403;-60
2022/10/15 01:58:51;;;;;;;9.95;8.43;;;23.10;49.70;;;;;;4945589;29;20148;-60
2022/10/15 02:01:18;;;;;;;11.23;8.82;;;23.10;49.60;;;;;;4951314;28;20047;-60
2022/10/15 02:03:48;;;;;;;8.90;7.68;;;23.10;49.60;;;;;;4950622;28;20055;-60
2022/10/15 02:06:33;;;;;;;10.07;7.80;;;23.20;49.60;;;;;;4951243;28;20043;-60
2022/10/15 02:09:30;;;;;;;12.20;9.15;;;23.20;49.60;;;;;;4950672;28;20281;-60
2022/10/15 02:12:24;;;;;;;11.18;7.85;;;23.20;49.50;;;;;;4950426;28;20051;-60
2022/10/15 02:15:07;;;;;;;11.32;8.07;;;23.10;49.50;;;;;;4949940;28;20055;-61
2022/10/15 02:17:48;;;;;;;10.48;8.65;;;23.10;49.40;;;;;;4951731;28;20055;-60
2022/10/15 02:20:22;;;;;;;12.10;8.73;;;23.10;50.00;;;;;;4951197;28;20510;-60
2022/10/15 02:22:57;;;;;;;10.38;7.80;;;23.20;49.50;;;;;;4950762;28;20047;-61
2022/10/15 02:25:26;;;;;;;10.02;7.90;;;23.10;49.40;;;;;;4950609;28;20047;-60
2022/10/15 02:27:55;;;;;;;9.15;7.53;;;23.20;49.50;;;;;;4950424;28;20074;-60
2022/10/15 02:30:24;;;;;;;9.52;7.72;;;23.20;49.50;;;;;;4946285;28;20417;-60
2022/10/15 02:32:55;;;;;;;9.43;7.70;;;23.10;49.40;;;;;;4950677;28;20043;-60
2022/10/15 02:35:23;;;;;;;10.88;7.75;;;23.10;49.40;;;;;;4951463;28;20059;-60
2022/10/15 02:37:53;;;;;;;10.32;7.60;;;23.10;49.40;;;;;;4963577;28;20043;-60
2022/10/15 02:40:26;;;;;;;8.95;7.43;;;23.20;49.50;;;;;;4969778;28;20491;-60
2022/10/15 02:42:53;;;;;;;9.73;7.50;;;23.10;49.50;;;;;;4970766;28;20058;-61
2022/10/15 02:45:20;;;;;;;9.32;8.25;;;23.10;49.50;;;;;;4969087;28;20043;-60
2022/10/15 02:47:47;;;;;;;10.32;8.30;;;23.10;49.50;;;;;;4968546;28;20059;-61
2022/10/15 02:50:15;;;;;;;10.82;7.85;;;23.10;49.50;;;;;;4969682;28;20046;-61
2022/10/15 02:52:42;;;;;;;8.70;7.53;;;23.00;49.40;;;;;;4969315;28;20055;-61
2022/10/15 02:55:09;;;;;;;9.27;8.25;;;23.10;49.50;;;;;;4968905;28;20446;-61
2022/10/15 02:57:36;;;;;;;9.15;7.30;;;23.10;49.50;;;;;;4969737;28;20518;-60
2022/10/15 03:00:04;;;;;;;9.80;8.20;;;23.10;49.50;;;;;;4970252;28;20061;-61
2022/10/15 03:02:31;;;;;;;9.52;7.30;;;23.00;49.40;;;;;;4970216;28;20046;-61
2022/10/15 03:04:58;;;;;;;10.18;7.22;;;23.10;49.50;;;;;;4964784;28;20047;-60
2022/10/15 03:07:25;;;;;;;8.45;7.10;;;23.10;50.00;;;;;;4969932;28;20065;-60
2022/10/15 03:09:52;;;;;;;11.13;7.57;;;23.10;49.40;;;;;;4969367;28;20051;-61
2022/10/15 03:12:22;;;;;;;8.93;7.13;;;23.10;49.40;;;;;;4969686;28;20054;-60
2022/10/15 03:14:49;;;;;;;9.13;7.13;;;23.10;49.40;;;;;;4967832;28;20050;-61
2022/10/15 03:17:16;;;;;;;10.20;8.00;;;23.10;49.50;;;;;;4970082;28;20043;-61
2022/10/15 03:19:43;;;;;;;11.18;7.53;;;23.00;49.40;;;;;;4969904;28;20054;-61
2022/10/15 03:22:10;;;;;;;9.18;7.78;;;23.00;49.40;;;;;;4968857;28;20503;-60
2022/10/15 03:24:37;;;;;;;8.95;7.00;;;23.00;49.40;;;;;;4984139;28;20522;-60
2022/10/15 03:27:04;;;;;;;10.73;7.38;;;23.00;49.40;;;;;;4969117;28;20054;-60
2022/10/15 03:29:31;;;;;;;8.48;7.00;;;23.00;49.40;;;;;;4975975;28;20047;-60
2022/10/15 03:31:58;;;;;;;9.23;6.90;;;23.00;49.40;;;;;;4976467;28;20471;-61
2022/10/15 03:34:25;;;;;;;10.00;7.50;;;23.00;49.30;;;;;;4989148;28;20051;-60
2022/10/15 03:36:52;;;;;;;9.65;7.43;;;23.00;49.30;;;;;;4971342;28;20426;-61
2022/10/15 03:39:19;;;;;;;8.57;7.57;;;23.10;49.30;;;;;;4976443;28;20051;-60
2022/10/15 03:41:46;;;;;;;7.78;6.28;;;23.00;49.20;;;;;;4976143;28;20483;-61
2022/10/15 03:44:14;;;;;;;7.72;6.30;;;23.10;49.20;;;;;;4975343;28;20490;-60
2022/10/15 03:46:41;;;;;;;7.63;6.82;;;23.10;49.20;;;;;;4975106;28;20525;-60
2022/10/15 03:49:08;;;;;;;7.93;7.13;;;23.10;49.20;;;;;;4975196;28;20081;-61
2022/10/15 03:51:35;;;;;;;8.38;6.88;;;23.00;49.20;;;;;;4975152;28;20483;-61
2022/10/15 03:54:02;;;;;;;8.98;7.20;;;23.10;49.20;;;;;;4975611;28;20059;-61
2022/10/15 03:56:29;;;;;;;7.97;7.05;;;23.10;49.20;;;;;;4975863;28;20494;-60
2022/10/15 03:58:57;;;;;;;6.85;5.93;;;23.10;49.20;;;;;;4975746;28;20062;-60
2022/10/15 04:01:24;;;;;;;9.50;6.57;;;23.10;49.20;;;;;;4975493;28;20586;-61
2022/10/15 04:03:52;;;;;;;7.90;6.35;;;23.00;49.20;;;;;;4975277;28;20109;-61
2022/10/15 04:06:20;;;;;;;7.93;6.90;;;23.00;49.20;;;;;;4974763;28;20101;-60
2022/10/15 04:08:47;;;;;;;10.10;7.38;;;23.00;49.20;;;;;;4971734;28;20061;-60
2022/10/15 04:11:14;;;;;;;7.63;6.57;;;23.00;49.20;;;;;;4975028;28;20134;-60
2022/10/15 04:13:41;;;;;;;9.30;6.93;;;23.00;49.20;;;;;;4974815;28;20589;-60
2022/10/15 04:16:08;;;;;;;7.20;6.38;;;23.00;49.20;;;;;;4973128;28;20262;-61
2022/10/15 04:18:35;;;;;;;7.30;6.43;;;23.00;49.20;;;;;;4975159;28;20047;-60
2022/10/15 04:21:02;;;;;;;9.10;6.63;;;23.00;49.20;;;;;;4975612;28;20061;-60
2022/10/15 04:23:29;;;;;;;7.72;6.47;;;23.00;49.20;;;;;;4975131;28;20059;-60
2022/10/15 04:26:00;;;;;;;8.40;6.30;;;23.00;49.30;;;;;;4974361;28;20058;-61
2022/10/15 04:28:27;;;;;;;7.55;6.57;;;23.00;49.30;;;;;;4975685;28;20047;-61
2022/10/15 04:30:59;;;;;;;8.43;6.68;;;23.00;49.20;;;;;;4973998;28;20074;-61
2022/10/15 04:33:27;;;;;;;8.23;6.40;;;23.00;49.30;;;;;;4973470;28;20054;-60
2022/10/15 04:36:02;;;;;;;7.65;6.45;;;23.00;49.20;;;;;;4973359;28;20534;-61
2022/10/15 04:38:30;;;;;;;7.30;6.32;;;23.00;49.10;;;;;;4973618;28;20047;-60
2022/10/15 04:40:59;;;;;;;6.78;5.95;;;23.00;48.90;;;;;;4969970;28;20054;-60
2022/10/15 04:43:27;;;;;;;8.20;6.82;;;23.00;48.90;;;;;;4969119;28;20295;-60
2022/10/15 04:45:56;;;;;;;6.07;5.22;;;23.00;48.80;;;;;;4971833;28;20046;-61
2022/10/15 04:48:24;;;;;;;7.35;6.22;;;23.00;48.70;;;;;;4971238;28;20053;-61
2022/10/15 04:50:51;;;;;;;7.40;6.28;;;23.00;48.70;;;;;;4971646;28;20055;-60
2022/10/15 04:53:19;;;;;;;11.85;6.72;;;23.00;48.60;;;;;;4971402;28;20047;-60
2022/10/15 04:55:46;;;;;;;8.27;7.10;;;22.90;48.50;;;;;;4971424;28;20090;-61
2022/10/15 04:58:13;;;;;;;7.95;5.85;;;22.90;48.50;;;;;;4971460;28;20051;-61
2022/10/15 05:00:41;;;;;;;7.70;6.25;;;22.90;48.50;;;;;;4972163;28;20066;-61
2022/10/15 05:03:08;;;;;;;7.07;5.57;;;22.90;48.50;;;;;;4971882;28;20046;-60
2022/10/15 05:05:35;;;;;;;8.05;5.93;;;22.90;48.50;;;;;;4971864;28;20043;-60
2022/10/15 05:08:02;;;;;;;8.00;6.78;;;22.90;48.40;;;;;;4971335;28;20284;-61
2022/10/15 05:10:29;;;;;;;6.90;6.18;;;22.90;48.30;;;;;;4972167;28;20077;-61
2022/10/15 05:12:56;;;;;;;7.70;6.43;;;22.90;48.20;;;;;;4968882;28;20055;-60
2022/10/15 05:15:26;;;;;;;7.68;5.60;;;22.90;48.20;;;;;;4964746;28;20093;-60
2022/10/15 05:17:53;;;;;;;7.50;6.65;;;22.90;48.10;;;;;;4963261;28;20050;-58
2022/10/15 05:20:20;;;;;;;6.85;6.15;;;22.90;48.10;;;;;;4965594;28;20050;-60
2022/10/15 05:22:47;;;;;;;7.63;5.95;;;22.90;48.10;;;;;;4979959;28;20062;-60
2022/10/15 05:25:14;;;;;;;7.82;6.05;;;22.90;48.00;;;;;;4970207;28;20065;-60
2022/10/15 05:27:41;;;;;;;8.20;6.55;;;22.90;48.00;;;;;;4966464;28;20403;-60
2022/10/15 05:30:09;;;;;;;8.88;6.43;;;22.90;47.90;;;;;;4972719;28;20051;-59
2022/10/15 05:32:37;;;;;;;8.25;6.60;;;22.90;47.90;;;;;;4969130;28;20058;-58
2022/10/15 05:35:04;;;;;;;8.68;6.45;;;22.90;48.00;;;;;;4967038;28;20049;-60
2022/10/15 05:37:31;;;;;;;11.95;7.55;;;22.90;48.10;;;;;;4959093;28;20621;-59
2022/10/15 05:39:58;;;;;;;13.45;8.45;;;22.90;48.20;;;;;;4968528;28;20054;-60
2022/10/15 05:42:25;;;;;;;11.82;8.23;;;22.90;48.20;;;;;;4964742;28;20411;-60
2022/10/15 05:44:53;;;;;;;15.48;7.57;;;22.90;48.70;;;;;;4965871;28;20053;-60
2022/10/15 05:47:20;;;;;;;15.05;8.18;;;22.90;48.00;;;;;;4966701;28;20466;-60
2022/10/15 05:49:48;;;;;;;11.55;7.43;;;23.00;47.90;;;;;;4964972;28;20495;-61
2022/10/15 05:52:15;;;;;;;11.95;8.02;;;23.00;47.80;;;;;;4965819;28;20047;-67
2022/10/15 05:54:42;;;;;;;13.63;8.30;;;22.90;47.60;;;;;;4941078;28;20066;-61
2022/10/15 05:57:09;;;;;;;12.20;8.35;;;23.00;47.70;;;;;;4939083;28;20044;-61
2022/10/15 05:59:36;;;;;;;10.98;7.68;;;23.00;47.80;;;;;;4945008;28;20063;-60
2022/10/15 06:02:04;;;;;;;12.35;7.85;;;23.00;47.90;;;;;;4946202;28;20044;-60
2022/10/15 06:04:31;;;;;;;10.75;7.90;;;23.00;48.00;;;;;;4943325;28;20563;-62
2022/10/15 06:07:01;;;;;;;11.63;7.60;;;23.00;48.00;;;;;;4941011;28;20070;-62
2022/10/15 06:09:29;;;;;;;14.75;8.20;;;23.00;47.90;;;;;;4943081;28;20159;-61
2022/10/15 06:11:56;;;;;;;12.20;8.93;;;23.00;47.70;;;;;;4939109;28;20529;-62
2022/10/15 06:14:23;;;;;;;11.98;8.65;;;23.00;47.60;;;;;;4941577;28;20043;-60
2022/10/15 06:16:53;;;;;;;16.30;9.10;;;23.10;47.50;;;;;;4939103;28;20055;-61
2022/10/15 06:19:20;;;;;;;16.73;8.60;;;23.10;47.50;;;;;;4943432;28;20141;-61
2022/10/15 06:21:48;;;;;;;13.13;9.15;;;23.10;47.50;;;;;;4948353;28;20050;-61
2022/10/15 06:24:15;;;;;;;14.13;9.07;;;23.10;47.50;;;;;;4948496;28;20047;-62
2022/10/15 06:26:42;;;;;;;14.05;8.52;;;23.10;47.50;;;;;;4966811;28;20051;-61
2022/10/15 06:29:09;;;;;;;13.98;9.38;;;23.20;47.50;;;;;;4967859;28;20518;-61
2022/10/15 06:31:36;;;;;;;16.67;9.57;;;23.20;47.50;;;;;;4964561;28;20058;-61
2022/10/15 06:34:04;;;;;;;14.57;8.25;;;23.30;47.50;;;;;;4962663;28;20050;-62
2022/10/15 06:36:31;;;;;;;13.05;8.98;;;23.30;47.40;;;;;;4961491;28;20050;-62
2022/10/15 06:38:58;;;;;;;14.48;9.32;;;23.30;47.40;;;;;;4955307;28;20057;-60
2022/10/15 06:41:25;;;;;;;15.65;9.43;;;23.30;47.40;;;;;;4957290;28;20545;-61
2022/10/15 06:43:53;;;;;;;15.05;9.05;;;23.40;47.50;;;;;;4962005;28;20046;-60
2022/10/15 06:46:20;;;;;;;13.77;9.13;;;23.40;47.50;;;;;;4953304;28;20463;-60
2022/10/15 06:48:48;;;;;;;11.60;8.50;;;23.40;47.40;;;;;;4957825;28;20047;-60
2022/10/15 06:51:15;;;;;;;16.73;9.48;;;23.50;47.50;;;;;;4961171;28;20058;-59
2022/10/15 06:53:42;;;;;;;15.18;8.98;;;23.50;47.40;;;;;;4971252;28;20073;-60
2022/10/15 06:56:09;;;;;;;17.13;9.40;;;23.50;47.30;;;;;;4970851;28;20073;-60
2022/10/15 06:58:37;;;;;;;16.95;8.35;;;23.60;47.30;;;;;;4976683;28;20063;-60
2022/10/15 07:01:05;;;;;;;13.98;8.02;;;23.60;47.30;;;;;;4977885;28;20042;-60
2022/10/15 07:03:32;;;;;;;12.23;8.13;;;23.60;47.20;;;;;;4972551;28;20046;-61
2022/10/15 07:06:05;;;;;;;13.52;8.00;;;23.60;47.10;;;;;;4969416;28;20043;-60
2022/10/15 07:08:32;;;;;;;12.13;7.78;;;23.60;46.90;;;;;;4964098;28;20059;-60
2022/10/15 07:11:04;;;;;;;11.45;7.28;;;23.70;46.80;;;;;;4978131;28;20043;-60
2022/10/15 07:13:31;;;;;;;12.45;7.70;;;23.60;46.70;;;;;;4975505;28;20063;-61
2022/10/15 07:16:06;;;;;;;11.63;7.85;;;23.70;46.50;;;;;;4973003;28;20502;-60
2022/10/15 07:18:34;;;;;;;12.20;7.63;;;23.70;46.30;;;;;;4970574;28;20723;-60
2022/10/15 07:21:03;;;;;;;12.35;8.00;;;23.80;46.30;;;;;;4968247;28;20050;-60
2022/10/15 07:23:30;;;;;;;15.90;7.82;;;23.80;46.10;;;;;;4972368;28;20055;-60
2022/10/15 07:25:58;;;;;;;12.88;8.18;;;23.80;46.00;;;;;;4972353;28;20068;-60
2022/10/15 07:28:26;;;;;;;11.73;7.53;;;23.90;46.10;;;;;;4962877;28;20043;-60
2022/10/15 07:30:53;;;;;;;9.10;6.45;;;23.90;46.10;;;;;;4972085;28;20391;-60
2022/10/15 07:33:20;;;;;;;9.48;6.70;;;23.90;46.00;;;;;;4976197;28;20050;-60
2022/10/15 07:35:47;;;;;;;11.50;7.28;;;23.90;46.00;;;;;;4966394;28;20078;-60
2022/10/15 07:38:14;;;;;;;10.50;6.80;;;23.90;45.90;;;;;;4957458;28;20050;-60
2022/10/15 07:40:41;;;;;;;9.80;6.70;;;24.00;45.80;;;;;;4965043;28;20527;-60
2022/10/15 07:43:09;;;;;;;10.63;6.60;;;24.00;45.80;;;;;;4962544;28;20050;-60
2022/10/15 07:45:36;;;;;;;10.45;6.78;;;24.00;45.80;;;;;;4967308;28;20047;-60
2022/10/15 07:48:04;;;;;;;10.15;7.00;;;24.10;45.70;;;;;;4967543;28;20054;-59
2022/10/15 07:50:31;;;;;;;9.55;6.47;;;24.10;45.70;;;;;;4963838;28;20062;-59
2022/10/15 07:53:02;;;;;;;9.15;6.25;;;24.10;45.70;;;;;;4964780;28;20043;-60
2022/10/15 07:55:29;;;;;;;9.32;6.15;;;24.10;45.70;;;;;;4959035;28;20055;-59
2022/10/15 07:57:58;;;;;;;10.73;6.30;;;24.10;45.50;;;;;;4967683;28;20070;-60
2022/10/15 08:00:25;;;;;;;10.30;5.93;;;24.20;45.60;;;;;;4971057;28;20062;-61
2022/10/15 08:02:52;;;;;;;9.75;6.10;;;24.20;45.50;;;;;;4967814;28;20047;-61
2022/10/15 08:05:20;;;;;;;7.10;5.47;;;24.20;45.40;;;;;;4969140;28;20046;-60
2022/10/15 08:07:47;;;;;;;12.82;6.70;;;24.30;45.40;;;;;;4970292;28;20491;-60
2022/10/15 08:10:14;;;;;;;8.13;5.22;;;24.30;45.30;;;;;;4968281;28;20054;-60
2022/10/15 08:12:41;;;;;;;7.70;5.40;;;24.30;45.30;;;;;;4965053;28;20448;-61
2022/10/15 08:15:08;;;;;;;7.95;5.68;;;24.30;45.20;;;;;;4964324;28;20043;-60
2022/10/15 08:17:36;;;;;;;9.70;5.50;;;24.30;45.10;;;;;;4968201;28;20054;-60
2022/10/15 08:20:03;;;;;;;9.85;5.07;;;24.40;45.00;;;;;;4969620;28;20054;-61
2022/10/15 08:22:31;;;;;;;7.90;5.13;;;24.40;45.00;;;;;;4967887;28;20047;-60
2022/10/15 08:24:58;;;;;;;7.25;5.00;;;24.40;44.90;;;;;;4968672;28;20046;-61
2022/10/15 08:27:26;;;;;;;7.10;5.22;;;24.40;44.90;;;;;;4967302;28;20046;-61
2022/10/15 08:29:53;;;;;;;7.55;4.93;;;24.40;44.80;;;;;;4969534;28;20496;-61
2022/10/15 08:32:20;;;;;;;6.85;5.45;;;24.50;44.90;;;;;;4962776;28;20047;-60
2022/10/15 08:34:47;;;;;;;8.52;6.15;;;24.50;44.70;;;;;;4959125;28;20272;-62
2022/10/15 08:37:14;;;;;;;7.50;5.07;;;24.50;44.70;;;;;;4965102;28;20046;-62
2022/10/15 08:39:42;;;;;;;8.15;4.65;;;24.50;44.60;;;;;;4971081;28;20126;-62
2022/10/15 08:42:21;;;;;;;6.97;4.13;;;24.50;44.40;;;;;;4965675;28;20043;-61
2022/10/15 08:45:02;;;;;;;7.97;4.50;;;24.50;44.10;;;;;;4963579;28;20464;-63
2022/10/15 08:47:46;;;;;;;7.32;5.25;;;24.60;44.00;;;;;;4966387;28;20321;-62
2022/10/15 08:50:47;;;;;;;6.85;4.65;;;24.60;43.80;;;;;;4965272;28;20057;-61
2022/10/15 08:53:21;;;;;;;8.98;5.43;;;24.60;43.80;;;;;;4978940;28;20065;-61
2022/10/15 08:55:52;;;;;;;6.28;4.32;;;24.60;43.90;;;;;;4972176;28;20061;-60
2022/10/15 08:58:52;;;;;;;6.72;4.72;;;24.60;44.00;;;;;;4968502;28;20101;-61
2022/10/15 09:01:36;;;;;;;7.00;4.82;;;24.60;43.80;;;;;;4966194;28;20052;-61
2022/10/15 09:04:31;;;;;;;6.97;5.07;;;24.60;43.70;;;;;;4962215;28;20050;-61
2022/10/15 09:07:18;;;;;;;6.22;4.35;;;24.70;43.70;;;;;;4982304;28;20054;-60
2022/10/15 09:09:54;;;;;;;10.55;3.75;;;24.70;43.60;;;;;;4975949;28;20391;-61
2022/10/15 09:12:47;;;;;;;8.10;5.38;;;24.70;43.50;;;;;;4980728;28;20062;-60
2022/10/15 09:15:18;;;;;;;6.15;4.43;;;24.70;43.50;;;;;;4976388;28;20415;-60
2022/10/15 09:17:53;;;;;;;7.50;4.55;;;24.70;43.50;;;;;;4959785;28;20047;-62
2022/10/15 09:20:33;;;;;;;4.70;4.07;;;24.80;43.50;;;;;;4970514;28;20050;-61
2022/10/15 09:23:01;;;;;;;7.03;4.13;;;24.80;43.50;;;;;;4972496;28;20049;-60
2022/10/15 09:25:34;;;;;;;5.40;4.13;;;24.80;43.40;;;;;;4977174;28;20396;-61
2022/10/15 09:28:09;;;;;;;7.20;4.97;;;24.80;43.30;;;;;;4971892;28;20058;-61
2022/10/15 09:30:51;;;;;;;4.70;4.20;;;24.90;43.40;;;;;;4966006;28;20058;-61
2022/10/15 09:33:35;;;;;;;6.45;4.07;;;24.90;43.30;;;;;;4962575;28;20054;-61
2022/10/15 09:36:42;;;;;;;5.88;4.32;;;24.90;43.20;;;;;;4970553;28;20451;-61
2022/10/15 09:39:38;;;;;;;6.40;4.32;;;25.00;43.10;;;;;;4954607;28;20046;-61
2022/10/15 09:42:34;;;;;;;5.95;4.03;;;25.00;43.10;;;;;;4970151;28;20055;-61
2022/10/15 09:45:10;;;;;;;5.45;4.35;;;25.00;42.90;;;;;;4971564;28;20130;-60
2022/10/15 09:47:40;;;;;;;7.90;4.30;;;25.10;43.00;;;;;;4970559;28;20051;-68
2022/10/15 09:50:10;;;;;;;8.48;4.07;;;25.10;43.00;;;;;;4966876;28;20047;-62
2022/10/15 09:53:07;;;;;;;4.55;3.67;;;25.10;42.90;;;;;;4963003;28;20059;-61
2022/10/15 09:55:44;;;;;;;5.43;4.28;;;25.20;42.70;;;;;;4961265;28;20055;-61
2022/10/15 09:58:19;;;;;;;5.95;4.47;;;25.20;42.60;;;;;;4956311;28;20061;-60
2022/10/15 10:00:59;;;;;;;5.40;4.07;;;25.20;42.60;;;;;;4965592;28;20051;-62
2022/10/15 10:03:29;;;;;;;7.03;4.28;;;25.20;42.60;;;;;;4971433;28;20043;-61
2022/10/15 10:06:10;;;;;;;5.72;3.95;;;25.30;42.70;;;;;;4966451;28;20073;-60
2022/10/15 10:08:48;;;;;;;4.68;3.88;;;25.30;42.60;;;;;;4970075;28;20043;-59
2022/10/15 10:11:15;;;;;;;4.03;3.55;;;25.30;42.50;;;;;;4959117;28;20047;-60
2022/10/15 10:13:54;;;;;;;8.65;4.07;;;25.30;42.40;;;;;;4958422;28;20046;-60
2022/10/15 10:16:23;;;;;;;6.85;4.20;;;25.30;42.30;;;;;;4971604;28;20061;-60
2022/10/15 10:19:12;;;;;;;9.75;4.55;;;25.40;42.30;;;;;;4954160;28;20050;-60
2022/10/15 10:21:41;;;;;;;5.38;3.95;;;25.40;42.10;;;;;;4970462;28;20058;-60
2022/10/15 10:24:30;;;;;;;5.18;4.07;;;25.40;42.10;;;;;;4969944;28;20065;-60
2022/10/15 10:26:58;;;;;;;4.90;3.88;;;25.40;42.10;;;;;;4970803;28;20403;-60
2022/10/15 10:29:28;;;;;;;6.55;3.75;;;25.40;42.00;;;;;;4969906;28;20757;-60
2022/10/15 10:32:18;;;;;;;8.48;3.95;;;25.40;42.00;;;;;;4964352;28;20247;-60
2022/10/15 10:34:45;;;;;;;9.18;4.53;;;25.40;41.90;;;;;;4953573;28;20396;-60
2022/10/15 10:37:18;;;;;;;4.30;3.75;;;25.40;41.90;;;;;;4945290;28;20497;-60
2022/10/15 10:39:52;;;;;;;4.35;3.50;;;25.40;41.90;;;;;;4951045;28;20051;-60
2022/10/15 10:42:25;;;;;;;6.07;3.80;;;25.40;41.90;;;;;;4948884;29;20062;-60
2022/10/15 10:44:53;;;;;;;6.65;3.90;;;25.40;41.70;;;;;;4949762;28;20054;-60
2022/10/15 10:47:22;;;;;;;6.22;4.22;;;25.40;41.70;;;;;;4950209;28;20043;-60
2022/10/15 10:49:52;;;;;;;6.13;3.85;;;25.40;41.70;;;;;;4949070;28;20051;-60
2022/10/15 10:52:35;;;;;;;5.25;4.28;;;25.50;41.70;;;;;;4950435;28;20056;-60
2022/10/15 10:55:12;;;;;;;6.72;4.20;;;25.50;41.50;;;;;;4950631;28;20039;-60
2022/10/15 10:57:58;;;;;;;5.38;3.80;;;25.50;41.40;;;;;;4978741;28;20057;-60
2022/10/15 11:00:43;;;;;;;5.53;3.88;;;25.50;41.30;;;;;;4974685;28;20046;-60
2022/10/15 11:03:35;;;;;;;6.22;4.07;;;25.50;41.30;;;;;;4980292;28;20214;-60
2022/10/15 11:06:40;;;;;;;4.78;3.58;;;25.50;41.10;;;;;;4976165;28;20491;-60
2022/10/15 11:09:29;;;;;;;4.72;3.33;;;25.50;41.10;;;;;;4972700;28;20050;-60
2022/10/15 11:12:25;;;;;;;5.80;4.27;;;25.50;41.00;;;;;;4975184;28;20401;-60
2022/10/15 11:15:15;;;;;;;6.22;3.63;;;25.50;40.90;;;;;;4977478;28;20662;-59
2022/10/15 11:18:21;;;;;;;5.85;4.45;;;25.50;40.80;;;;;;4975942;28;20532;-60
2022/10/15 11:21:28;;;;;;;5.10;4.05;;;25.60;40.70;;;;;;4976654;28;20268;-60
2022/10/15 11:24:14;;;;;;;6.53;3.63;;;25.50;40.50;;;;;;4975308;28;20046;-59
2022/10/15 11:27:13;;;;;;;4.13;3.60;;;25.50;40.50;;;;;;4976090;28;20050;-60
2022/10/15 11:29:54;;;;;;;6.60;3.28;;;25.60;40.60;;;;;;4977327;28;20053;-59
2022/10/15 11:32:37;;;;;;;4.50;3.70;;;25.60;40.50;;;;;;4978348;28;20091;-60
2022/10/15 11:35:50;;;;;;;8.48;4.35;;;25.60;40.50;;;;;;4977783;28;20046;-60
2022/10/15 11:38:45;;;;;;;5.47;3.47;;;25.60;40.30;;;;;;4977332;28;20374;-60
2022/10/15 11:41:41;;;;;;;6.03;4.32;;;25.60;40.40;;;;;;4973030;28;20042;-60
2022/10/15 11:44:35;;;;;;;3.55;3.25;;;25.60;40.40;;;;;;4974981;28;20051;-60
2022/10/15 11:47:30;;;;;;;5.53;3.47;;;25.60;40.40;;;;;;4978802;28;20050;-59
2022/10/15 11:50:33;;;;;;;4.03;3.30;;;25.70;40.40;;;;;;4980674;28;20042;-59
2022/10/15 11:53:40;;;;;;;4.95;3.78;;;25.70;40.40;;;;;;4980634;28;20255;-60
2022/10/15 11:56:25;;;;;;;4.28;3.58;;;25.70;40.40;;;;;;4953768;28;20559;-60
2022/10/15 11:59:22;;;;;;;5.38;3.70;;;25.70;40.40;;;;;;4954330;28;20374;-59
2022/10/15 12:01:58;;;;;;;4.95;3.88;;;25.70;40.60;;;;;;4966392;28;20259;-59
2022/10/15 12:04:48;;;;;;;4.30;3.72;;;25.70;40.60;;;;;;4953260;28;20539;-60
2022/10/15 12:07:22;;;;;;;5.25;3.78;;;25.70;40.60;;;;;;4953756;28;20047;-60
2022/10/15 12:09:54;;;;;;;6.10;3.45;;;25.70;40.60;;;;;;4953585;28;20043;-60
2022/10/15 12:13:02;;;;;;;4.03;3.60;;;25.70;40.60;;;;;;4948946;28;20083;-60
2022/10/15 12:15:43;;;;;;;3.40;3.10;;;25.70;40.60;;;;;;4953785;28;20086;-60
2022/10/15 12:18:34;;;;;;;4.90;3.80;;;25.70;40.70;;;;;;4953541;28;20058;-60
2022/10/15 12:21:02;;;;;;;4.50;3.53;;;25.70;40.80;;;;;;4953517;28;20435;-59
2022/10/15 12:23:41;;;;;;;4.95;3.83;;;25.70;40.70;;;;;;4952940;28;20071;-60
2022/10/15 12:26:31;;;;;;;7.38;3.92;;;25.70;40.50;;;;;;4968470;28;20567;-60
2022/10/15 12:29:00;;;;;;;10.23;3.53;;;25.70;40.60;;;;;;4952657;28;20062;-60
2022/10/15 12:31:48;;;;;;;3.90;3.60;;;25.80;41.30;;;;;;4953543;28;20059;-60
2022/10/15 12:34:42;;;;;;;8.82;4.13;;;25.80;40.90;;;;;;4953132;28;20051;-60
2022/10/15 12:37:17;;;;;;;4.82;4.03;;;25.70;40.80;;;;;;4965917;28;20058;-60
2022/10/15 12:39:45;;;;;;;6.68;3.78;;;25.80;41.20;;;;;;4971381;28;20070;-60
2022/10/15 12:42:36;;;;;;;5.15;3.85;;;25.70;41.30;;;;;;4972436;28;20047;-58
2022/10/15 12:45:07;;;;;;;5.97;3.67;;;25.70;41.20;;;;;;4967966;28;20072;-61
2022/10/15 12:47:47;;;;;;;6.40;5.18;;;25.70;42.30;;;;;;4987052;28;20507;-61
2022/10/15 12:50:19;;;;;;;5.10;3.88;;;25.80;41.50;;;;;;4970982;28;20423;-61
2022/10/15 12:52:59;;;;;;;4.53;3.88;;;25.70;41.60;;;;;;4972170;28;20414;-60
2022/10/15 12:55:38;;;;;;;5.30;4.05;;;25.70;41.80;;;;;;4977968;28;20058;-60
2022/10/15 12:58:33;;;;;;;5.40;4.07;;;25.70;42.60;;;;;;4991201;28;20062;-60
2022/10/15 13:01:27;;;;;;;6.25;4.50;;;25.70;43.00;;;;;;4981098;28;20046;-60
2022/10/15 13:03:56;;;;;;;5.15;3.92;;;25.70;43.20;;;;;;4971537;28;20093;-60
2022/10/15 13:06:33;;;;;;;6.53;4.72;;;25.70;43.00;;;;;;4972064;28;20047;-61
2022/10/15 13:09:17;;;;;;;5.90;4.40;;;25.70;42.90;;;;;;4972011;28;20061;-60
2022/10/15 13:11:50;;;;;;;4.25;3.85;;;25.70;42.80;;;;;;4971751;28;20051;-60
2022/10/15 13:14:31;;;;;;;6.30;4.13;;;25.70;42.60;;;;;;4972177;28;20051;-60
2022/10/15 13:17:02;;;;;;;5.93;4.10;;;25.60;42.40;;;;;;4966858;28;20383;-60
2022/10/15 13:19:38;;;;;;;6.47;4.20;;;25.60;42.20;;;;;;4971855;28;20047;-60